createdAt,value
2022-08-09T00:00:12.847Z,0.25
2022-08-09T00:04:00.130Z,0.4
2022-08-09T00:06:16.980Z,0.3
2022-08-09T00:09:11.373Z,0.4
2022-08-09T00:12:09.157Z,0.4
2022-08-09T00:15:14.749Z,0.45
2022-08-09T00:18:12.575Z,0.25
2022-08-09T00:21:09.640Z,0.15
2022-08-09T00:24:11.259Z,0.1
2022-08-09T00:27:09.387Z,0.25
2022-08-09T00:30:25.029Z,0.3
2022-08-09T00:33:09.033Z,0.3
2022-08-09T00:36:12.326Z,0.25
2022-08-09T00:39:17.138Z,0.25
2022-08-09T00:44:08.781Z,0.25
2022-08-09T00:45:15.760Z,0.35
2022-08-09T00:48:15.393Z,0.6
2022-08-09T00:51:13.085Z,0.6
2022-08-09T00:54:10.679Z,0.3
2022-08-09T00:57:10.524Z,0.3
2022-08-09T01:00:20.962Z,0.2
2022-08-09T01:03:09.972Z,0.05
2022-08-09T01:06:18.235Z,0.4
2022-08-09T01:09:10.995Z,0.55
2022-08-09T01:12:13.510Z,0.55
2022-08-09T01:15:17.158Z,0.65
2022-08-09T01:18:09.395Z,0.55
2022-08-09T01:21:10.898Z,0.7
2022-08-09T01:24:09.117Z,0.7
2022-08-09T01:27:10.427Z,0.55
2022-08-09T01:30:28.339Z,0.65
2022-08-09T01:33:11.025Z,0.3
2022-08-09T01:36:09.655Z,0.3
2022-08-09T01:39:10.539Z,0
2022-08-09T01:42:12.219Z,0.25
2022-08-09T01:45:09.138Z,0.3
2022-08-09T01:48:10.788Z,0
2022-08-09T01:51:10.840Z,0
2022-08-09T01:54:09.159Z,0
2022-08-09T01:57:09.153Z,0
2022-08-09T02:00:19.418Z,0
2022-08-09T02:03:14.164Z,0
2022-08-09T02:06:09.158Z,0
2022-08-09T02:09:09.534Z,0
2022-08-09T02:12:10.035Z,0
2022-08-09T02:15:15.371Z,0.2
2022-08-09T02:18:11.699Z,0.15
2022-08-09T02:21:09.190Z,0.1
2022-08-09T02:24:09.933Z,0
2022-08-09T02:27:09.644Z,0
2022-08-09T02:30:09.229Z,0
2022-08-09T02:33:14.681Z,0
2022-08-09T02:36:11.438Z,0
2022-08-09T02:39:19.838Z,0
2022-08-09T02:42:09.149Z,0
2022-08-09T02:45:09.228Z,0
2022-08-09T02:48:29.747Z,0
2022-08-09T02:51:09.185Z,0
2022-08-09T02:54:09.164Z,0
2022-08-09T02:57:23.037Z,0
2022-08-09T03:00:21.715Z,0.25
2022-08-09T03:03:09.332Z,0.25
2022-08-09T03:06:09.229Z,0.2
2022-08-09T03:09:09.190Z,0
2022-08-09T03:12:13.290Z,0.25
2022-08-09T03:15:10.283Z,0.3
2022-08-09T03:18:10.901Z,0.35
2022-08-09T03:21:10.058Z,0.4
2022-08-09T03:24:11.024Z,0.3
2022-08-09T03:27:09.234Z,0.3
2022-08-09T03:30:09.244Z,0
2022-08-09T03:33:16.959Z,0
2022-08-09T03:36:16.100Z,0.25
2022-08-09T03:39:10.793Z,0
2022-08-09T03:42:10.179Z,0.4
2022-08-09T03:45:09.280Z,0.15
2022-08-09T03:48:11.803Z,0.45
2022-08-09T03:51:44.380Z,0.55
2022-08-09T03:54:12.089Z,0.45
2022-08-09T03:57:18.886Z,0.5
2022-08-09T04:00:10.050Z,0.6
2022-08-09T04:03:19.554Z,0.85
2022-08-09T04:06:12.713Z,0.45
2022-08-09T04:09:41.554Z,0.45
2022-08-09T04:12:29.918Z,0.25
2022-08-09T04:15:17.455Z,0.35
2022-08-09T04:18:09.358Z,0.4
2022-08-09T04:21:09.949Z,0.25
2022-08-09T04:24:09.277Z,0.4
2022-08-09T04:27:09.617Z,0.3
2022-08-09T04:30:10.467Z,0.3
2022-08-09T04:33:09.673Z,0.3
2022-08-09T04:36:11.806Z,0.3
2022-08-09T04:39:09.399Z,0.45
2022-08-09T04:42:10.303Z,0.45
2022-08-09T04:45:09.408Z,0.35
2022-08-09T04:48:11.379Z,0.4
2022-08-09T04:51:10.454Z,0.55
2022-08-09T04:54:11.171Z,0.3
2022-08-09T04:57:13.119Z,0.5
2022-08-09T05:00:09.734Z,0.3
2022-08-09T05:03:30.850Z,0.2
2022-08-09T05:06:09.308Z,0.4
2022-08-09T05:09:09.339Z,0.5
2022-08-09T05:12:09.618Z,0.35
2022-08-09T05:15:24.510Z,0.25
2022-08-09T05:18:40.091Z,0.55
2022-08-09T05:21:20.966Z,0.25
2022-08-09T05:24:10.382Z,0.25
2022-08-09T05:27:14.253Z,0.45
2022-08-09T05:30:10.974Z,0.5
2022-08-09T05:33:10.878Z,0.4
2022-08-09T05:36:09.310Z,0.6
2022-08-09T05:39:10.254Z,0.65
2022-08-09T05:42:09.758Z,0.75
2022-08-09T05:45:09.449Z,0.65
2022-08-09T05:48:09.418Z,0.65
2022-08-09T05:51:17.055Z,0.55
2022-08-09T05:54:13.388Z,0.35
2022-08-09T05:57:14.399Z,0.65
2022-08-09T06:00:10.109Z,0.75
2022-08-09T06:03:11.579Z,0.65
2022-08-09T06:06:10.424Z,0.7
2022-08-09T06:09:23.358Z,0.5
2022-08-09T06:12:09.983Z,0.9
2022-08-09T06:15:11.113Z,0.7
2022-08-09T06:18:12.198Z,0.65
2022-08-09T06:21:11.163Z,0.75
2022-08-09T06:24:10.505Z,0.8
2022-08-09T06:27:09.739Z,0.85
2022-08-09T06:30:10.749Z,1.2
2022-08-09T06:33:30.656Z,1.45
2022-08-09T06:36:09.464Z,0.85
2022-08-09T06:39:12.576Z,1.3
2022-08-09T06:42:12.510Z,1.05
2022-08-09T06:46:03.393Z,1.15
2022-08-09T06:48:09.978Z,1.05
2022-08-09T06:51:09.458Z,1.5
2022-08-09T06:54:14.898Z,1.35
2022-08-09T06:57:09.390Z,1.4
2022-08-09T07:00:48.076Z,1.25
2022-08-09T07:03:11.968Z,0.7
2022-08-09T07:06:09.448Z,0.9
2022-08-09T07:09:53.077Z,1.5
2022-08-09T07:12:17.824Z,1.45
2022-08-09T07:15:53.546Z,1.05
2022-08-09T07:18:11.235Z,1.25
2022-08-09T07:21:09.649Z,1.3
2022-08-09T07:24:09.436Z,1.65
2022-08-09T07:27:26.074Z,1.5
2022-08-09T07:30:10.350Z,1.65
2022-08-09T07:33:16.567Z,1.35
2022-08-09T07:36:10.355Z,1.75
2022-08-09T07:39:12.668Z,1.65
2022-08-09T07:42:10.246Z,1.45
2022-08-09T07:45:15.090Z,1.7
2022-08-09T07:48:22.826Z,1.6
2022-08-09T07:52:03.020Z,1.35
2022-08-09T07:54:09.835Z,1.6
2022-08-09T07:57:12.828Z,1.25
2022-08-09T08:00:10.070Z,2
2022-08-09T08:03:12.303Z,1.55
2022-08-09T08:06:14.525Z,1.55
2022-08-09T08:09:17.767Z,2
2022-08-09T08:12:25.261Z,1.45
2022-08-09T08:15:11.215Z,1.4
2022-08-09T08:18:10.211Z,1.5
2022-08-09T08:21:09.513Z,1.55
2022-08-09T08:24:16.646Z,1.15
2022-08-09T08:27:16.384Z,1.7
2022-08-09T08:30:12.087Z,1.45
2022-08-09T08:33:21.854Z,1.35
2022-08-09T08:36:10.548Z,1.65
2022-08-09T08:39:11.691Z,1.3
2022-08-09T08:42:10.163Z,1.5
2022-08-09T08:45:14.494Z,1.85
2022-08-09T08:48:11.131Z,1.55
2022-08-09T08:51:10.954Z,1.75
2022-08-09T08:54:20.375Z,1.85
2022-08-09T08:57:12.480Z,1.35
2022-08-09T09:00:16.965Z,1.5
2022-08-09T09:03:16.539Z,1.3
2022-08-09T09:06:10.553Z,1.45
2022-08-09T09:09:21.383Z,2.9
2022-08-09T09:12:16.894Z,1.65
2022-08-09T09:15:12.973Z,1.75
2022-08-09T09:18:10.294Z,2.9
2022-08-09T09:21:09.734Z,2.9
2022-08-09T09:24:21.671Z,2.1
2022-08-09T09:27:09.684Z,1.8
2022-08-09T09:33:17.188Z,1.55
2022-08-09T09:36:20.113Z,0.65
2022-08-09T09:39:10.898Z,1.6
2022-08-09T09:42:12.921Z,1.6
2022-08-09T09:45:09.586Z,1.4
2022-08-09T09:48:10.506Z,1.05
2022-08-09T09:51:18.791Z,1.6
2022-08-09T09:54:19.134Z,2.05
2022-08-09T09:58:01.803Z,1.8
2022-08-09T10:00:12.597Z,0.8
2022-08-09T10:03:14.060Z,2.1
2022-08-09T10:06:12.979Z,1.5
2022-08-09T10:09:21.922Z,2.4
2022-08-09T10:12:27.924Z,1.8
2022-08-09T10:15:17.376Z,1.8
2022-08-09T10:18:12.490Z,1.75
2022-08-09T10:21:09.621Z,1.75
2022-08-09T10:24:15.880Z,2.3
2022-08-09T10:27:17.369Z,1.85
2022-08-09T10:33:29.996Z,2.4
2022-08-09T10:36:12.652Z,2.15
2022-08-09T10:39:16.243Z,2.35
2022-08-09T10:42:10.958Z,1.8
2022-08-09T10:45:16.954Z,1.75
2022-08-09T10:48:19.602Z,1.45
2022-08-09T10:51:09.651Z,1.5
2022-08-09T10:54:13.355Z,1.7
2022-08-09T10:57:09.659Z,1.4
2022-08-09T11:00:09.789Z,1
2022-08-09T11:03:27.680Z,2.65
2022-08-09T11:06:09.678Z,2.05
2022-08-09T11:09:15.633Z,1.45
2022-08-09T11:12:09.671Z,1.45
2022-08-09T11:15:09.959Z,1.1
2022-08-09T11:18:09.706Z,1.45
2022-08-09T11:21:09.636Z,2
2022-08-09T11:24:12.234Z,1.6
2022-08-09T11:27:14.314Z,1.8
2022-08-09T11:30:32.255Z,3.15
2022-08-09T11:33:11.301Z,2.65
2022-08-09T11:36:14.722Z,1.65
2022-08-09T11:39:12.225Z,1.45
2022-08-09T11:42:15.073Z,2.2
2022-08-09T11:45:10.108Z,1.5
2022-08-09T11:48:19.617Z,3.55
2022-08-09T11:52:49.651Z,1.15
2022-08-09T11:54:21.751Z,2.35
2022-08-09T11:57:09.767Z,1.2
2022-08-09T12:00:15.992Z,2.75
2022-08-09T12:03:50.754Z,1.65
2022-08-09T12:06:09.715Z,1.45
2022-08-09T12:09:15.358Z,1.85
2022-08-09T12:12:19.974Z,1.85
2022-08-09T12:15:10.171Z,1.35
2022-08-09T12:18:11.244Z,0.8
2022-08-09T12:21:26.559Z,1.6
2022-08-09T12:24:11.017Z,2.4
2022-08-09T12:29:00.512Z,2.7
2022-08-09T12:30:35.980Z,1.4
2022-08-09T12:33:11.682Z,1
2022-08-09T12:36:15.571Z,2.05
2022-08-09T12:39:09.986Z,1.45
2022-08-09T12:42:09.737Z,1.45
2022-08-09T12:45:33.132Z,1.8
2022-08-09T12:48:20.598Z,2.6
2022-08-09T12:51:09.754Z,1.5
2022-08-09T12:54:09.730Z,1.1
2022-08-09T12:57:11.218Z,2.35
2022-08-09T13:00:12.875Z,1.95
2022-08-09T13:03:20.591Z,2
2022-08-09T13:06:18.422Z,2.2
2022-08-09T13:09:10.087Z,0.9
2022-08-09T13:12:10.171Z,1.65
2022-08-09T13:15:10.519Z,1.5
2022-08-09T13:18:17.362Z,1.5
2022-08-09T13:22:34.640Z,1.7
2022-08-09T13:24:17.782Z,1.15
2022-08-09T13:27:09.777Z,1.4
2022-08-09T13:30:49.682Z,1.8
2022-08-09T13:33:17.045Z,0.95
2022-08-09T13:36:23.965Z,1.5
2022-08-09T13:39:34.238Z,1.15
2022-08-09T13:42:13.533Z,1.6
2022-08-09T13:45:13.934Z,1.65
2022-08-09T13:48:11.688Z,0.75
2022-08-09T13:51:10.043Z,0.85
2022-08-09T13:54:14.315Z,1.4
2022-08-09T13:57:36.121Z,1.55
2022-08-09T14:00:09.788Z,1.4
2022-08-09T14:03:58.267Z,1.15
2022-08-09T14:06:19.619Z,1.35
2022-08-09T14:09:11.219Z,2
2022-08-09T14:12:15.404Z,1.5
2022-08-09T14:15:19.711Z,1.45
2022-08-09T14:18:20.217Z,1.35
2022-08-09T14:21:10.020Z,1.85
2022-08-09T14:24:18.490Z,1.75
2022-08-09T14:27:20.098Z,2.85
2022-08-09T14:30:37.521Z,1.35
2022-08-09T14:33:13.520Z,1.1
2022-08-09T14:36:20.027Z,1.15
2022-08-09T14:39:10.485Z,1.85
2022-08-09T14:42:09.916Z,1.7
2022-08-09T14:46:40.890Z,1.55
2022-08-09T14:48:09.858Z,1.25
2022-08-09T14:51:09.976Z,0.95
2022-08-09T14:54:09.856Z,1.15
2022-08-09T14:57:09.895Z,1.35
2022-08-09T15:00:10.932Z,1.5
2022-08-09T15:03:11.489Z,1
2022-08-09T15:06:12.036Z,0.95
2022-08-09T15:09:10.701Z,2.4
2022-08-09T15:12:12.388Z,1.2
2022-08-09T15:15:11.340Z,1.75
2022-08-09T15:18:14.884Z,0.7
2022-08-09T15:21:54.103Z,0.75
2022-08-09T15:24:16.271Z,2.75
2022-08-09T15:27:11.597Z,1.35
2022-08-09T15:30:47.995Z,1.25
2022-08-09T15:33:15.103Z,1.55
2022-08-09T15:36:09.930Z,1.4
2022-08-09T15:39:10.591Z,1.7
2022-08-09T15:42:11.261Z,1.45
2022-08-09T15:45:10.862Z,1.95
2022-08-09T15:48:28.638Z,1.7
2022-08-09T15:51:30.581Z,1.85
2022-08-09T15:54:19.410Z,0.9
2022-08-09T15:57:10.460Z,1.2
2022-08-09T16:00:13.977Z,1.25
2022-08-09T16:03:10.410Z,1.65
2022-08-09T16:06:29.251Z,1.65
2022-08-09T16:09:10.147Z,1.8
2022-08-09T16:12:12.384Z,1.75
2022-08-09T16:16:04.084Z,1.9
2022-08-09T16:18:11.055Z,2.15
2022-08-09T16:21:12.106Z,1.25
2022-08-09T16:24:20.180Z,0.95
2022-08-09T16:27:11.179Z,0.5
2022-08-09T16:30:25.741Z,1.4
2022-08-09T16:33:09.974Z,1.2
2022-08-09T16:36:16.538Z,1.95
2022-08-09T16:39:10.026Z,1.7
2022-08-09T16:42:14.983Z,1.25
2022-08-09T16:45:09.935Z,1.45
2022-08-09T16:48:37.577Z,1.4
2022-08-09T16:51:14.754Z,1.85
2022-08-09T16:54:24.931Z,0.9
2022-08-09T16:57:11.691Z,0.85
2022-08-09T17:00:10.010Z,1.3
2022-08-09T17:03:21.171Z,1.8
2022-08-09T17:06:29.607Z,1
2022-08-09T17:09:44.656Z,1.4
2022-08-09T17:12:10.100Z,1.35
2022-08-09T17:15:18.115Z,1.9
2022-08-09T17:18:11.579Z,1.1
2022-08-09T17:21:10.544Z,1.25
2022-08-09T17:24:20.355Z,1.05
2022-08-09T17:27:15.299Z,1
2022-08-09T17:30:14.972Z,1.55
2022-08-09T17:33:21.699Z,1.1
2022-08-09T17:36:15.528Z,1
2022-08-09T17:39:10.235Z,1
2022-08-09T17:42:41.704Z,0.25
2022-08-09T17:45:15.694Z,0.7
2022-08-09T17:48:10.552Z,0.55
2022-08-09T17:51:17.828Z,0.85
2022-08-09T17:54:10.030Z,0.8
2022-08-09T17:57:17.310Z,0.8
2022-08-09T18:00:10.596Z,0.8
2022-08-09T18:03:10.445Z,0.6
2022-08-09T18:06:22.396Z,1.25
2022-08-09T18:09:11.175Z,0.85
2022-08-09T18:12:18.069Z,1
2022-08-09T18:15:12.994Z,0.9
2022-08-09T18:18:25.647Z,0.7
2022-08-09T18:21:19.493Z,0.9
2022-08-09T18:24:15.183Z,0.7
2022-08-09T18:27:10.080Z,0.45
2022-08-09T18:30:37.052Z,0.3
2022-08-09T18:33:15.234Z,0.4
2022-08-09T18:36:25.466Z,0.4
2022-08-09T18:39:16.111Z,0.35
2022-08-09T18:42:10.194Z,0.35
2022-08-09T18:45:21.395Z,0.45
2022-08-09T18:48:10.047Z,0.45
2022-08-09T18:51:10.090Z,0.3
2022-08-09T18:54:19.950Z,0.7
2022-08-09T18:57:13.600Z,0.2
2022-08-09T19:00:10.975Z,0.25
2022-08-09T19:03:10.711Z,0.45
2022-08-09T19:06:15.078Z,0.4
2022-08-09T19:09:20.662Z,0.4
2022-08-09T19:12:11.232Z,0.65
2022-08-09T19:15:10.262Z,0.4
2022-08-09T19:18:17.017Z,0.55
2022-08-09T19:21:12.456Z,0.4
2022-08-09T19:24:31.177Z,0.5
2022-08-09T19:27:10.695Z,0.45
2022-08-09T19:30:21.881Z,0.45
2022-08-09T19:33:19.251Z,0.5
2022-08-09T19:36:14.132Z,0.5
2022-08-09T19:39:11.296Z,0.5
2022-08-09T19:42:19.725Z,0.45
2022-08-09T19:45:10.137Z,0.4
2022-08-09T19:48:11.931Z,1
2022-08-09T19:51:10.156Z,0.7
2022-08-09T19:54:10.576Z,1
2022-08-09T19:57:14.361Z,0.75
2022-08-09T20:00:11.035Z,0.75
2022-08-09T20:04:14.432Z,0.65
2022-08-09T20:06:22.841Z,0.75
2022-08-09T20:09:43.874Z,0.9
2022-08-09T20:12:16.216Z,0.75
2022-08-09T20:16:32.411Z,0.75
2022-08-09T20:18:11.525Z,0.65
2022-08-09T20:21:11.001Z,1.05
2022-08-09T20:24:12.012Z,0.9
2022-08-09T20:27:14.065Z,0.7
2022-08-09T20:30:10.493Z,0.8
2022-08-09T20:33:12.579Z,0.45
2022-08-09T20:36:12.324Z,0.45
2022-08-09T20:39:28.631Z,0.5
2022-08-09T20:42:14.631Z,0.6
2022-08-09T20:45:58.119Z,0.65
2022-08-09T20:48:11.910Z,0.4
2022-08-09T20:51:16.811Z,0.85
2022-08-09T20:54:16.965Z,0.7
2022-08-09T20:57:10.817Z,0.5
2022-08-09T21:00:21.102Z,0.6
2022-08-09T21:03:10.285Z,0.6
2022-08-09T21:06:13.505Z,0.5
2022-08-09T21:09:16.422Z,0.5
2022-08-09T21:12:18.093Z,0.85
2022-08-09T21:15:13.688Z,0.7
2022-08-09T21:18:22.643Z,0.75
2022-08-09T21:21:17.340Z,1.05
2022-08-09T21:24:12.310Z,1
2022-08-09T21:27:51.483Z,1.7
2022-08-09T21:30:12.545Z,1.15
2022-08-09T21:33:10.188Z,1.45
2022-08-09T21:36:12.329Z,1
2022-08-09T21:39:17.186Z,1.05
2022-08-09T21:42:11.325Z,1.5
2022-08-09T21:45:15.750Z,1.35
2022-08-09T21:48:10.205Z,0.95
2022-08-09T21:51:23.967Z,1.1
2022-08-09T21:54:12.883Z,1.2
2022-08-09T21:57:25.402Z,1.15
2022-08-09T22:00:10.329Z,1.35
2022-08-09T22:03:19.434Z,1.35
2022-08-09T22:06:11.992Z,1.05
2022-08-09T22:09:11.901Z,2
2022-08-09T22:12:18.891Z,1.9
2022-08-09T22:15:16.599Z,1.45
2022-08-09T22:18:13.446Z,1.15
2022-08-09T22:21:21.725Z,0.95
2022-08-09T22:24:16.813Z,1.05
2022-08-09T22:27:10.941Z,1.9
2022-08-09T22:30:10.251Z,1.1
2022-08-09T22:33:11.209Z,1.35
2022-08-09T22:36:10.237Z,1.55
2022-08-09T22:39:20.680Z,1.2
2022-08-09T22:42:16.481Z,1.1
2022-08-09T22:48:05.356Z,1.45
2022-08-09T22:48:30.056Z,1.2
2022-08-09T22:51:17.659Z,1.5
2022-08-09T22:54:11.975Z,1.5
2022-08-09T22:57:10.815Z,1.45
2022-08-09T23:00:12.927Z,1.5
2022-08-09T23:03:13.497Z,1.1
2022-08-09T23:06:15.185Z,1.65
2022-08-09T23:09:10.262Z,1.25
2022-08-09T23:12:10.303Z,1.35
2022-08-09T23:15:10.326Z,1.55
2022-08-09T23:18:10.301Z,0.95
2022-08-09T23:21:11.026Z,0.75
2022-08-09T23:24:10.316Z,1
2022-08-09T23:27:10.307Z,0.85
2022-08-09T23:30:10.368Z,1.15
2022-08-09T23:33:10.339Z,0.6
2022-08-09T23:36:10.280Z,0.75
2022-08-09T23:39:10.464Z,0.95
2022-08-09T23:42:10.322Z,0.75
2022-08-09T23:45:10.467Z,0.65
2022-08-09T23:48:10.338Z,0.35
2022-08-09T23:51:10.288Z,0.4
2022-08-09T23:54:10.326Z,0.6
2022-08-09T23:57:12.165Z,0.55
